createdAt,value
2023-02-19T00:01:54.005Z,98.08
2023-02-19T00:04:23.799Z,96.47
2023-02-19T00:06:52.065Z,97.91
2023-02-19T00:09:21.913Z,98.54
2023-02-19T00:11:50.118Z,98.87
2023-02-19T00:14:21.026Z,99.37
2023-02-19T00:16:49.992Z,99.85
2023-02-19T00:19:19.963Z,98.62
2023-02-19T00:21:48.440Z,99.00
2023-02-19T00:24:16.748Z,98.48
2023-02-19T00:26:47.342Z,97.72
2023-02-19T00:29:17.621Z,97.54
2023-02-19T00:31:46.570Z,97.50
2023-02-19T00:34:15.495Z,97.09
2023-02-19T00:36:44.483Z,97.38
2023-02-19T00:39:16.128Z,96.14
2023-02-19T00:41:45.643Z,97.45
2023-02-19T00:44:15.893Z,98.43
2023-02-19T00:46:45.990Z,97.83
2023-02-19T00:49:17.598Z,98.71
2023-02-19T00:51:45.723Z,97.86
2023-02-19T00:54:14.144Z,98.22
2023-02-19T00:56:42.407Z,97.04
2023-02-19T00:59:10.911Z,97.05
2023-02-19T01:01:40.721Z,96.88
2023-02-19T01:04:09.130Z,98.54
2023-02-19T01:06:37.552Z,98.53
2023-02-19T01:09:07.177Z,97.65
2023-02-19T01:11:36.032Z,96.85
2023-02-19T01:14:05.132Z,98.56
2023-02-19T01:16:33.290Z,98.06
2023-02-19T01:19:02.769Z,97.11
2023-02-19T01:21:31.968Z,97.58
2023-02-19T01:24:00.249Z,97.82
2023-02-19T01:26:30.185Z,98.31
2023-02-19T01:28:59.698Z,98.38
2023-02-19T01:31:28.803Z,97.10
2023-02-19T01:33:59.208Z,95.11
2023-02-19T01:36:29.422Z,95.67
2023-02-19T01:38:57.693Z,94.68
2023-02-19T01:41:26.935Z,94.81
2023-02-19T01:44:02.214Z,94.40
2023-02-19T01:46:32.792Z,94.95
2023-02-19T01:49:05.691Z,95.02
2023-02-19T01:51:37.678Z,95.13
2023-02-19T01:54:09.401Z,93.90
2023-02-19T01:56:39.537Z,94.32
2023-02-19T01:59:08.567Z,94.18
2023-02-19T02:01:38.565Z,94.83
2023-02-19T02:04:08.044Z,94.79
2023-02-19T02:06:43.533Z,93.70
2023-02-19T02:09:29.228Z,94.38
2023-02-19T02:11:57.329Z,94.90
2023-02-19T02:14:28.614Z,96.75
2023-02-19T02:17:03.206Z,97.67
2023-02-19T02:19:44.993Z,95.84
2023-02-19T02:22:20.629Z,97.08
2023-02-19T02:25:06.445Z,97.36
2023-02-19T02:27:50.315Z,96.67
2023-02-19T02:30:40.721Z,98.24
2023-02-19T02:33:18.009Z,97.79
2023-02-19T02:35:51.477Z,96.86
2023-02-19T02:38:26.424Z,95.88
2023-02-19T02:40:56.640Z,96.34
2023-02-19T02:43:25.486Z,95.62
2023-02-19T02:45:54.964Z,96.06
2023-02-19T02:48:34.003Z,97.25
2023-02-19T02:51:07.798Z,97.96
2023-02-19T02:54:05.436Z,97.49
2023-02-19T02:56:35.531Z,98.08
2023-02-19T02:59:08.259Z,97.61
2023-02-19T03:02:00.673Z,97.75
2023-02-19T03:04:34.049Z,98.55
2023-02-19T03:07:08.357Z,98.33
2023-02-19T03:09:43.238Z,95.34
2023-02-19T03:12:36.177Z,98.09
2023-02-19T03:15:27.663Z,97.35
2023-02-19T03:18:19.460Z,96.36
2023-02-19T03:20:51.918Z,96.96
2023-02-19T03:23:44.635Z,97.63
2023-02-19T03:26:13.812Z,99.35
2023-02-19T03:29:08.850Z,99.95
2023-02-19T03:31:42.340Z,98.85
2023-02-19T03:34:16.133Z,99.47
2023-02-19T03:36:46.997Z,96.76
2023-02-19T03:39:21.259Z,97.65
2023-02-19T03:41:58.305Z,97.91
2023-02-19T03:44:35.886Z,96.84
2023-02-19T03:47:13.418Z,100.00
2023-02-19T03:49:49.108Z,98.37
2023-02-19T03:52:25.094Z,100.00
2023-02-19T03:54:58.332Z,100.00
2023-02-19T03:57:35.039Z,100.00
2023-02-19T04:00:10.101Z,100.00
2023-02-19T04:02:45.690Z,100.00
2023-02-19T04:05:19.698Z,100.00
2023-02-19T04:07:51.083Z,100.00
2023-02-19T04:10:25.006Z,100.00
2023-02-19T04:13:00.644Z,100.00
2023-02-19T04:15:33.386Z,100.00
2023-02-19T04:18:05.727Z,100.00
2023-02-19T04:20:40.994Z,100.00
2023-02-19T04:23:09.804Z,100.00
2023-02-19T04:25:40.702Z,100.00
2023-02-19T04:28:10.065Z,99.73
2023-02-19T04:30:38.253Z,100.00
2023-02-19T04:33:06.347Z,100.00
2023-02-19T04:35:35.818Z,100.00
2023-02-19T04:38:03.892Z,100.00
2023-02-19T04:40:32.125Z,100.00
2023-02-19T04:43:00.146Z,99.82
2023-02-19T04:45:28.222Z,99.71
2023-02-19T04:47:56.311Z,100.00
2023-02-19T04:50:24.335Z,100.00
2023-02-19T04:52:53.789Z,100.00
2023-02-19T04:55:21.909Z,100.00
2023-02-19T04:57:50.031Z,100.00
2023-02-19T05:00:18.186Z,100.00
2023-02-19T05:02:46.247Z,100.00
2023-02-19T05:05:14.354Z,100.00
2023-02-19T05:07:42.397Z,100.00
2023-02-19T05:10:11.859Z,100.00
2023-02-19T05:12:39.895Z,99.76
2023-02-19T05:15:08.451Z,100.00
2023-02-19T05:17:36.977Z,100.00
2023-02-19T05:20:05.449Z,98.55
2023-02-19T05:22:33.520Z,100.00
2023-02-19T05:25:01.548Z,100.00
2023-02-19T05:27:33.015Z,99.77
2023-02-19T05:30:01.114Z,99.92
2023-02-19T05:32:29.212Z,99.54
2023-02-19T05:34:57.330Z,98.99
2023-02-19T05:37:25.338Z,98.67
2023-02-19T05:39:53.395Z,98.53
2023-02-19T05:42:21.541Z,98.81
2023-02-19T05:44:50.986Z,98.70
2023-02-19T05:47:18.997Z,99.22
2023-02-19T05:49:47.096Z,99.91
2023-02-19T05:52:15.135Z,99.26
2023-02-19T05:54:43.277Z,97.89
2023-02-19T05:57:11.459Z,98.89
2023-02-19T05:59:39.507Z,98.88
2023-02-19T06:02:08.952Z,99.29
2023-02-19T06:04:37.468Z,99.64
2023-02-19T06:07:05.532Z,100.00
2023-02-19T06:09:33.576Z,98.50
2023-02-19T06:12:01.615Z,98.78
2023-02-19T06:14:29.767Z,99.51
2023-02-19T06:16:57.786Z,97.02
2023-02-19T06:19:27.211Z,97.98
2023-02-19T06:21:55.269Z,98.51
2023-02-19T06:24:23.482Z,97.52
2023-02-19T06:26:51.520Z,97.39
2023-02-19T06:29:19.659Z,97.40
2023-02-19T06:31:47.808Z,97.41
2023-02-19T06:34:15.921Z,98.52
2023-02-19T06:36:45.346Z,98.58
2023-02-19T06:39:13.379Z,98.33
2023-02-19T06:41:41.408Z,99.32
2023-02-19T06:44:09.502Z,97.86
2023-02-19T06:46:37.988Z,98.23
2023-02-19T06:49:06.575Z,99.02
2023-02-19T06:51:34.952Z,100.00
2023-02-19T06:54:04.510Z,99.90
2023-02-19T06:56:34.084Z,100.00
2023-02-19T06:59:04.666Z,100.00
2023-02-19T07:01:34.200Z,100.00
2023-02-19T07:04:02.766Z,98.72
2023-02-19T07:06:31.570Z,98.83
2023-02-19T07:09:00.448Z,98.24
2023-02-19T07:11:31.975Z,98.55
2023-02-19T07:14:01.682Z,98.62
2023-02-19T07:16:30.444Z,100.00
2023-02-19T07:18:59.146Z,100.00
2023-02-19T07:21:28.096Z,100.00
2023-02-19T07:23:56.488Z,99.15
2023-02-19T07:26:25.446Z,99.17
2023-02-19T07:28:54.924Z,99.05
2023-02-19T07:31:25.150Z,98.68
2023-02-19T07:33:53.860Z,96.37
2023-02-19T07:36:23.524Z,95.00
2023-02-19T07:38:55.658Z,96.76
2023-02-19T07:41:24.423Z,96.80
2023-02-19T07:43:52.921Z,97.57
2023-02-19T07:46:23.783Z,96.11
2023-02-19T07:48:51.840Z,96.63
2023-02-19T07:51:21.642Z,94.27
2023-02-19T07:53:51.387Z,94.19
2023-02-19T07:56:20.526Z,94.86
2023-02-19T07:58:48.655Z,93.66
2023-02-19T08:01:18.487Z,94.08
2023-02-19T08:03:49.435Z,94.22
2023-02-19T08:06:18.399Z,93.29
2023-02-19T08:08:46.417Z,90.60
2023-02-19T08:11:43.044Z,91.88
2023-02-19T08:14:11.049Z,92.73
2023-02-19T08:16:43.217Z,94.46
2023-02-19T08:19:12.921Z,94.98
2023-02-19T08:21:41.052Z,95.43
2023-02-19T08:24:09.238Z,95.51
2023-02-19T08:26:37.563Z,96.12
2023-02-19T08:29:06.221Z,94.77
2023-02-19T08:31:35.480Z,94.57
2023-02-19T08:34:04.164Z,96.29
2023-02-19T08:36:33.617Z,97.18
2023-02-19T08:39:01.687Z,96.80
2023-02-19T08:41:29.715Z,96.30
2023-02-19T08:43:57.893Z,96.31
2023-02-19T08:46:26.092Z,95.50
2023-02-19T08:48:54.193Z,96.26
2023-02-19T08:51:22.238Z,96.24
2023-02-19T08:53:51.690Z,95.03
2023-02-19T08:56:19.746Z,97.25
2023-02-19T08:58:48.076Z,95.95
2023-02-19T09:01:19.163Z,96.84
2023-02-19T09:03:47.403Z,95.34
2023-02-19T09:06:18.424Z,98.37
2023-02-19T09:08:47.021Z,96.39
2023-02-19T09:11:16.752Z,95.95
2023-02-19T09:13:44.915Z,97.08
2023-02-19T09:16:13.513Z,96.20
2023-02-19T09:18:41.610Z,96.83
2023-02-19T09:21:10.064Z,95.47
2023-02-19T09:23:38.678Z,93.55
2023-02-19T09:26:10.268Z,93.90
2023-02-19T09:28:42.047Z,94.13
2023-02-19T09:31:12.379Z,95.70
2023-02-19T09:33:44.452Z,93.47
2023-02-19T09:36:13.447Z,94.16
2023-02-19T09:38:41.618Z,94.07
2023-02-19T09:41:15.312Z,93.40
2023-02-19T09:43:45.236Z,96.08
2023-02-19T09:46:24.786Z,96.02
2023-02-19T09:48:54.358Z,95.95
2023-02-19T09:51:24.050Z,94.47
2023-02-19T09:53:53.217Z,95.52
2023-02-19T09:56:21.314Z,93.96
2023-02-19T09:58:53.986Z,93.34
2023-02-19T10:01:23.757Z,93.66
2023-02-19T10:03:51.888Z,93.22
2023-02-19T10:06:23.576Z,92.75
2023-02-19T10:08:54.029Z,91.99
2023-02-19T10:11:23.661Z,94.33
2023-02-19T10:14:09.436Z,92.18
2023-02-19T10:16:41.710Z,91.90
2023-02-19T10:19:12.165Z,91.74
2023-02-19T10:21:40.699Z,92.76
2023-02-19T10:24:14.940Z,95.02
2023-02-19T10:26:43.092Z,96.12
2023-02-19T10:29:12.602Z,96.44
2023-02-19T10:31:40.734Z,96.50
2023-02-19T10:34:19.491Z,94.54
2023-02-19T10:36:50.355Z,95.26
2023-02-19T10:39:42.939Z,95.01
2023-02-19T10:42:19.400Z,94.62
2023-02-19T10:44:52.882Z,96.95
2023-02-19T10:47:24.194Z,98.69
2023-02-19T10:49:53.689Z,99.22
2023-02-19T10:52:26.693Z,99.94
2023-02-19T10:54:57.751Z,99.33
2023-02-19T10:57:33.018Z,100.00
2023-02-19T11:00:05.545Z,99.12
2023-02-19T11:02:33.664Z,98.59
2023-02-19T11:05:08.523Z,98.13
2023-02-19T11:07:38.508Z,97.37
2023-02-19T11:10:08.890Z,97.28
2023-02-19T11:12:37.001Z,98.27
2023-02-19T11:15:22.358Z,98.30
2023-02-19T11:17:56.904Z,97.78
2023-02-19T11:20:25.576Z,97.73
2023-02-19T11:22:59.669Z,95.60
2023-02-19T11:25:28.474Z,95.91
2023-02-19T11:27:59.425Z,95.63
2023-02-19T11:30:38.130Z,97.02
2023-02-19T11:33:24.014Z,96.85
2023-02-19T11:35:55.075Z,95.51
2023-02-19T11:38:23.271Z,95.07
2023-02-19T11:40:59.741Z,94.75
2023-02-19T11:43:44.188Z,95.69
2023-02-19T11:46:22.290Z,96.06
2023-02-19T11:49:10.327Z,94.17
2023-02-19T11:52:03.125Z,93.86
2023-02-19T11:54:48.766Z,94.96
2023-02-19T11:57:28.697Z,94.47
2023-02-19T12:00:13.784Z,92.26
2023-02-19T12:03:04.408Z,91.75
2023-02-19T12:05:41.328Z,90.81
2023-02-19T12:08:32.544Z,91.70
2023-02-19T12:11:13.048Z,91.28
2023-02-19T12:14:03.065Z,89.53
2023-02-19T12:16:35.674Z,89.99
2023-02-19T12:19:43.613Z,89.12
2023-02-19T12:22:26.534Z,89.28
2023-02-19T12:25:23.741Z,89.43
2023-02-19T12:28:19.758Z,88.41
2023-02-19T12:31:09.024Z,86.83
2023-02-19T12:34:02.783Z,85.70
2023-02-19T12:36:38.822Z,87.02
2023-02-19T12:39:19.722Z,86.11
2023-02-19T12:41:57.470Z,85.81
2023-02-19T12:44:37.089Z,85.88
2023-02-19T12:47:08.420Z,86.16
2023-02-19T12:49:40.484Z,87.28
2023-02-19T12:52:16.111Z,86.00
2023-02-19T12:54:47.531Z,89.27
2023-02-19T12:57:19.667Z,86.10
2023-02-19T12:59:51.630Z,87.05
2023-02-19T13:02:24.886Z,86.26
2023-02-19T13:05:01.265Z,85.69
2023-02-19T13:07:34.660Z,84.70
2023-02-19T13:10:23.083Z,84.38
2023-02-19T13:12:53.185Z,84.68
2023-02-19T13:15:26.128Z,84.33
2023-02-19T13:17:57.184Z,85.13
2023-02-19T13:20:32.591Z,86.56
2023-02-19T13:23:26.232Z,86.40
2023-02-19T13:26:12.092Z,85.10
2023-02-19T13:28:53.374Z,85.36
2023-02-19T13:31:43.203Z,85.32
2023-02-19T13:34:18.845Z,85.48
2023-02-19T13:36:49.153Z,84.98
2023-02-19T13:39:22.324Z,83.57
2023-02-19T13:41:52.873Z,84.79
2023-02-19T13:44:23.236Z,83.35
2023-02-19T13:46:51.841Z,84.05
2023-02-19T13:49:43.153Z,82.49
2023-02-19T13:52:50.821Z,82.78
2023-02-19T13:55:52.028Z,82.68
2023-02-19T13:58:58.242Z,82.10
2023-02-19T14:02:08.898Z,84.96
2023-02-19T14:04:51.237Z,86.52
2023-02-19T14:07:35.618Z,84.98
2023-02-19T14:10:04.892Z,85.01
2023-02-19T14:12:36.170Z,84.82
2023-02-19T14:15:41.665Z,82.81
2023-02-19T14:18:45.074Z,81.65
2023-02-19T14:21:23.481Z,81.54
2023-02-19T14:23:55.055Z,82.10
2023-02-19T14:26:24.767Z,81.10
2023-02-19T14:28:55.209Z,81.34
2023-02-19T14:31:29.230Z,79.24
2023-02-19T14:34:00.593Z,78.50
2023-02-19T14:36:35.012Z,80.47
2023-02-19T14:39:06.738Z,78.59
2023-02-19T14:41:40.452Z,79.62
2023-02-19T14:44:18.157Z,77.91
2023-02-19T14:46:54.528Z,78.43
2023-02-19T14:49:29.254Z,79.06
2023-02-19T14:52:01.038Z,78.12
2023-02-19T14:54:45.761Z,79.08
2023-02-19T14:57:19.002Z,79.13
2023-02-19T14:59:57.876Z,79.77
2023-02-19T15:02:27.210Z,78.92
2023-02-19T15:04:56.244Z,78.90
2023-02-19T15:07:27.677Z,79.98
2023-02-19T15:10:03.627Z,79.84
2023-02-19T15:12:36.102Z,80.58
2023-02-19T15:15:07.284Z,80.31
2023-02-19T15:17:40.334Z,80.59
2023-02-19T15:20:13.495Z,78.42
2023-02-19T15:22:42.713Z,79.14
2023-02-19T15:25:17.558Z,78.63
2023-02-19T15:27:45.763Z,77.94
2023-02-19T15:30:24.049Z,77.52
2023-02-19T15:32:57.169Z,78.53
2023-02-19T15:35:27.507Z,77.71
2023-02-19T15:37:56.530Z,77.78
2023-02-19T15:40:30.624Z,79.66
2023-02-19T15:43:00.380Z,79.45
2023-02-19T15:45:35.346Z,78.37
2023-02-19T15:48:08.193Z,78.10
2023-02-19T15:50:40.107Z,78.85
2023-02-19T15:53:13.325Z,79.07
2023-02-19T15:55:46.035Z,79.16
2023-02-19T15:58:18.861Z,77.70
2023-02-19T16:00:50.920Z,77.27
2023-02-19T16:03:21.372Z,78.20
2023-02-19T16:05:59.873Z,78.71
2023-02-19T16:08:31.432Z,78.52
2023-02-19T16:11:01.540Z,78.73
2023-02-19T16:13:31.548Z,79.95
2023-02-19T16:16:16.200Z,79.36
2023-02-19T16:18:47.767Z,79.28
2023-02-19T16:21:18.323Z,76.83
2023-02-19T16:23:49.394Z,77.95
2023-02-19T16:26:18.659Z,78.25
2023-02-19T16:28:52.896Z,77.80
2023-02-19T16:31:25.125Z,77.58
2023-02-19T16:33:53.557Z,77.34
2023-02-19T16:36:41.852Z,77.62
2023-02-19T16:39:21.215Z,76.98
2023-02-19T16:42:14.583Z,77.67
2023-02-19T16:44:44.369Z,77.35
2023-02-19T16:47:24.248Z,75.96
2023-02-19T16:49:52.642Z,74.98
2023-02-19T16:52:20.693Z,75.12
2023-02-19T16:54:49.651Z,74.37
2023-02-19T16:57:18.400Z,72.62
2023-02-19T16:59:46.439Z,73.79
2023-02-19T17:02:22.321Z,73.27
2023-02-19T17:04:51.959Z,73.23
2023-02-19T17:07:20.176Z,72.27
2023-02-19T17:09:48.312Z,73.43
2023-02-19T17:12:18.160Z,72.59
2023-02-19T17:14:46.287Z,73.29
2023-02-19T17:17:14.558Z,73.60
2023-02-19T17:19:44.083Z,74.72
2023-02-19T17:22:16.837Z,72.62
2023-02-19T17:24:46.045Z,73.60
2023-02-19T17:27:14.496Z,74.01
2023-02-19T17:29:42.795Z,72.41
2023-02-19T17:32:10.994Z,72.69
2023-02-19T17:34:39.087Z,74.18
2023-02-19T17:37:08.529Z,73.56
2023-02-19T17:39:36.560Z,72.80
2023-02-19T17:42:05.371Z,73.94
2023-02-19T17:44:33.501Z,73.81
2023-02-19T17:47:02.240Z,73.96
2023-02-19T17:49:30.301Z,74.42
2023-02-19T17:51:59.658Z,72.92
2023-02-19T17:54:29.086Z,72.23
2023-02-19T17:56:57.274Z,73.69
2023-02-19T17:59:25.350Z,74.13
2023-02-19T18:01:53.421Z,73.82
2023-02-19T18:04:21.554Z,74.13
2023-02-19T18:06:49.592Z,74.53
2023-02-19T18:09:19.471Z,74.15
2023-02-19T18:11:49.429Z,74.73
2023-02-19T18:14:17.640Z,74.93
2023-02-19T18:16:50.358Z,74.69
2023-02-19T18:19:18.935Z,76.09
2023-02-19T18:21:48.268Z,74.44
2023-02-19T18:24:16.625Z,74.35
2023-02-19T18:26:44.875Z,76.26
2023-02-19T18:29:14.673Z,77.23
2023-02-19T18:31:42.881Z,75.38
2023-02-19T18:34:18.052Z,75.76
2023-02-19T18:36:46.631Z,77.15
2023-02-19T18:39:14.905Z,75.27
2023-02-19T18:41:47.092Z,76.08
2023-02-19T18:44:18.724Z,77.15
2023-02-19T18:46:47.007Z,78.00
2023-02-19T18:49:16.471Z,77.38
2023-02-19T18:51:44.805Z,78.03
2023-02-19T18:54:12.987Z,77.57
2023-02-19T18:56:44.725Z,77.52
2023-02-19T18:59:14.000Z,79.50
2023-02-19T19:01:43.946Z,80.64
2023-02-19T19:04:12.355Z,80.96
2023-02-19T19:06:40.462Z,81.04
2023-02-19T19:09:09.154Z,82.25
2023-02-19T19:11:38.168Z,81.38
2023-02-19T19:14:06.287Z,81.25
2023-02-19T19:16:34.451Z,81.42
2023-02-19T19:19:04.028Z,82.02
2023-02-19T19:21:32.232Z,80.96
2023-02-19T19:24:00.545Z,81.45
2023-02-19T19:26:28.704Z,81.27
2023-02-19T19:28:56.895Z,82.23
2023-02-19T19:31:25.547Z,81.84
2023-02-19T19:33:54.042Z,82.61
2023-02-19T19:36:24.726Z,81.85
2023-02-19T19:38:52.974Z,83.23
2023-02-19T19:41:22.096Z,82.45
2023-02-19T19:43:50.191Z,82.49
2023-02-19T19:46:19.942Z,82.78
2023-02-19T19:48:48.775Z,82.52
2023-02-19T19:51:17.754Z,83.30
2023-02-19T19:53:50.126Z,82.61
2023-02-19T19:56:18.718Z,83.48
2023-02-19T19:58:48.747Z,83.24
2023-02-19T20:01:21.129Z,82.58
2023-02-19T20:03:51.119Z,83.55
2023-02-19T20:06:27.131Z,83.52
2023-02-19T20:08:57.031Z,83.08
2023-02-19T20:11:25.592Z,83.17
2023-02-19T20:13:53.825Z,82.00
2023-02-19T20:16:25.968Z,82.09
2023-02-19T20:18:54.071Z,82.68
2023-02-19T20:21:22.198Z,81.89
2023-02-19T20:23:50.539Z,82.97
2023-02-19T20:26:26.113Z,82.59
2023-02-19T20:28:56.563Z,82.70
2023-02-19T20:31:25.458Z,82.49
2023-02-19T20:33:54.492Z,82.90
2023-02-19T20:36:22.649Z,83.22
2023-02-19T20:38:51.288Z,82.73
2023-02-19T20:41:19.434Z,83.16
2023-02-19T20:43:48.951Z,83.93
2023-02-19T20:46:17.327Z,83.91
2023-02-19T20:48:46.121Z,83.68
2023-02-19T20:51:14.281Z,83.48
2023-02-19T20:53:43.494Z,82.31
2023-02-19T20:56:12.644Z,82.60
2023-02-19T20:58:43.366Z,82.79
2023-02-19T21:01:13.272Z,82.77
2023-02-19T21:03:41.671Z,82.31
2023-02-19T21:06:10.167Z,81.81
2023-02-19T21:08:38.356Z,82.19
2023-02-19T21:11:06.933Z,80.90
2023-02-19T21:13:35.202Z,81.56
2023-02-19T21:16:03.669Z,82.52
2023-02-19T21:18:33.213Z,82.22
2023-02-19T21:21:01.584Z,83.77
2023-02-19T21:23:29.692Z,82.60
2023-02-19T21:25:57.981Z,83.99
2023-02-19T21:28:26.142Z,85.17
2023-02-19T21:30:54.299Z,85.22
2023-02-19T21:33:22.359Z,89.12
2023-02-19T21:35:51.848Z,86.54
2023-02-19T21:38:19.988Z,85.28
2023-02-19T21:40:48.093Z,85.59
2023-02-19T21:43:16.482Z,86.50
2023-02-19T21:45:44.596Z,85.96
2023-02-19T21:48:14.137Z,86.03
2023-02-19T21:50:45.543Z,86.58
2023-02-19T21:53:15.606Z,87.37
2023-02-19T21:55:57.440Z,88.01
2023-02-19T21:58:26.917Z,87.50
2023-02-19T22:00:56.402Z,87.44
2023-02-19T22:03:26.568Z,87.07
2023-02-19T22:05:54.783Z,87.02
2023-02-19T22:08:24.249Z,87.28
2023-02-19T22:10:52.334Z,87.34
2023-02-19T22:13:20.423Z,88.07
2023-02-19T22:15:48.561Z,88.04
2023-02-19T22:18:16.721Z,87.82
2023-02-19T22:20:44.785Z,86.93
2023-02-19T22:23:12.931Z,86.38
2023-02-19T22:25:42.545Z,86.88
2023-02-19T22:28:10.642Z,87.58
2023-02-19T22:30:38.848Z,86.89
2023-02-19T22:33:07.129Z,86.91
2023-02-19T22:35:35.217Z,87.81
2023-02-19T22:38:03.283Z,87.61
2023-02-19T22:40:31.397Z,87.71
2023-02-19T22:43:00.841Z,87.48
2023-02-19T22:45:28.866Z,88.43
2023-02-19T22:47:57.148Z,87.75
2023-02-19T22:50:26.529Z,87.04
2023-02-19T22:52:55.726Z,88.08
2023-02-19T22:55:23.833Z,87.57
2023-02-19T22:57:51.945Z,87.29
2023-02-19T23:00:22.452Z,87.67
2023-02-19T23:02:50.752Z,86.98
2023-02-19T23:05:19.057Z,87.47
2023-02-19T23:07:47.411Z,86.97
2023-02-19T23:10:15.675Z,87.18
2023-02-19T23:12:43.867Z,87.00
2023-02-19T23:15:12.450Z,86.01
2023-02-19T23:17:41.940Z,86.85
2023-02-19T23:20:10.654Z,86.34
2023-02-19T23:22:38.749Z,86.64
2023-02-19T23:25:07.418Z,85.35
2023-02-19T23:27:35.464Z,85.61
2023-02-19T23:30:03.555Z,85.62
2023-02-19T23:32:31.612Z,85.24
2023-02-19T23:35:01.067Z,84.69
2023-02-19T23:37:29.135Z,84.32
2023-02-19T23:39:57.191Z,83.70
2023-02-19T23:42:25.260Z,82.17
2023-02-19T23:44:53.326Z,83.76
2023-02-19T23:47:22.538Z,85.04
2023-02-19T23:49:50.612Z,85.68
2023-02-19T23:52:20.024Z,85.49
2023-02-19T23:54:48.462Z,84.02
2023-02-19T23:57:16.439Z,83.47
2023-02-19T23:59:44.894Z,84.21
